sensor_id;sensor_type;location;lat;lon;timestamp;P1;durP1;ratioP1;P2;durP2;ratioP2
59016;SDS011;44800;55.600;38.134;2023-07-31T00:00:06;37.70;;;15.30;;
59016;SDS011;44800;55.600;38.134;2023-07-31T00:02:36;31.13;;;15.93;;
59016;SDS011;44800;55.600;38.134;2023-07-31T00:05:04;40.22;;;15.88;;
59016;SDS011;44800;55.600;38.134;2023-07-31T00:07:33;34.97;;;15.10;;
59016;SDS011;44800;55.600;38.134;2023-07-31T00:10:03;38.83;;;15.57;;
59016;SDS011;44800;55.600;38.134;2023-07-31T00:12:32;36.63;;;15.85;;
59016;SDS011;44800;55.600;38.134;2023-07-31T00:15:00;44.08;;;16.83;;
59016;SDS011;44800;55.600;38.134;2023-07-31T00:17:31;39.47;;;17.15;;
59016;SDS011;44800;55.600;38.134;2023-07-31T00:19:59;38.65;;;15.45;;
59016;SDS011;44800;55.600;38.134;2023-07-31T00:22:29;38.17;;;16.35;;
59016;SDS011;44800;55.600;38.134;2023-07-31T00:24:58;46.25;;;16.92;;
59016;SDS011;44800;55.600;38.134;2023-07-31T00:27:29;45.38;;;18.20;;
59016;SDS011;44800;55.600;38.134;2023-07-31T00:29:58;32.30;;;16.38;;
59016;SDS011;44800;55.600;38.134;2023-07-31T00:32:26;44.92;;;18.00;;
59016;SDS011;44800;55.600;38.134;2023-07-31T00:34:55;44.80;;;17.00;;
59016;SDS011;44800;55.600;38.134;2023-07-31T00:37:23;46.70;;;18.10;;
59016;SDS011;44800;55.600;38.134;2023-07-31T00:39:51;42.50;;;18.77;;
59016;SDS011;44800;55.600;38.134;2023-07-31T00:42:20;49.28;;;19.35;;
59016;SDS011;44800;55.600;38.134;2023-07-31T00:44:49;42.30;;;18.50;;
59016;SDS011;44800;55.600;38.134;2023-07-31T00:47:18;48.20;;;20.02;;
59016;SDS011;44800;55.600;38.134;2023-07-31T00:49:46;55.70;;;19.90;;
59016;SDS011;44800;55.600;38.134;2023-07-31T00:52:16;52.13;;;18.42;;
59016;SDS011;44800;55.600;38.134;2023-07-31T00:54:45;46.35;;;20.58;;
59016;SDS011;44800;55.600;38.134;2023-07-31T00:57:13;45.88;;;19.58;;
59016;SDS011;44800;55.600;38.134;2023-07-31T00:59:42;44.35;;;19.08;;
59016;SDS011;44800;55.600;38.134;2023-07-31T01:02:14;52.35;;;19.17;;
59016;SDS011;44800;55.600;38.134;2023-07-31T01:04:43;43.45;;;18.27;;
59016;SDS011;44800;55.600;38.134;2023-07-31T01:07:13;44.45;;;18.02;;
59016;SDS011;44800;55.600;38.134;2023-07-31T01:09:49;55.22;;;18.45;;
59016;SDS011;44800;55.600;38.134;2023-07-31T01:12:23;53.70;;;19.60;;
59016;SDS011;44800;55.600;38.134;2023-07-31T01:14:52;55.55;;;21.55;;
59016;SDS011;44800;55.600;38.134;2023-07-31T01:17:34;53.83;;;21.10;;
59016;SDS011;44800;55.600;38.134;2023-07-31T01:20:03;48.28;;;19.52;;
59016;SDS011;44800;55.600;38.134;2023-07-31T01:22:41;49.28;;;19.08;;
59016;SDS011;44800;55.600;38.134;2023-07-31T01:25:19;42.58;;;18.17;;
59016;SDS011;44800;55.600;38.134;2023-07-31T01:27:59;51.58;;;18.45;;
59016;SDS011;44800;55.600;38.134;2023-07-31T01:30:31;52.17;;;16.92;;
59016;SDS011;44800;55.600;38.134;2023-07-31T01:33:02;35.85;;;16.05;;
59016;SDS011;44800;55.600;38.134;2023-07-31T01:35:34;50.55;;;18.17;;
59016;SDS011;44800;55.600;38.134;2023-07-31T01:38:02;48.53;;;18.63;;
59016;SDS011;44800;55.600;38.134;2023-07-31T01:40:31;42.80;;;16.70;;
59016;SDS011;44800;55.600;38.134;2023-07-31T01:43:01;39.40;;;16.80;;
59016;SDS011;44800;55.600;38.134;2023-07-31T01:45:30;47.25;;;16.75;;
59016;SDS011;44800;55.600;38.134;2023-07-31T01:47:58;46.22;;;18.38;;
59016;SDS011;44800;55.600;38.134;2023-07-31T01:50:26;39.83;;;17.42;;
59016;SDS011;44800;55.600;38.134;2023-07-31T01:52:55;36.95;;;16.17;;
59016;SDS011;44800;55.600;38.134;2023-07-31T01:55:23;40.72;;;16.45;;
59016;SDS011;44800;55.600;38.134;2023-07-31T01:57:52;47.03;;;17.65;;
59016;SDS011;44800;55.600;38.134;2023-07-31T02:00:22;43.83;;;17.45;;
59016;SDS011;44800;55.600;38.134;2023-07-31T02:02:51;36.90;;;17.83;;
59016;SDS011;44800;55.600;38.134;2023-07-31T02:05:20;41.40;;;16.73;;
59016;SDS011;44800;55.600;38.134;2023-07-31T02:07:48;51.35;;;15.88;;
59016;SDS011;44800;55.600;38.134;2023-07-31T02:10:17;46.95;;;19.60;;
59016;SDS011;44800;55.600;38.134;2023-07-31T02:12:46;41.05;;;16.65;;
59016;SDS011;44800;55.600;38.134;2023-07-31T02:15:14;48.30;;;18.10;;
59016;SDS011;44800;55.600;38.134;2023-07-31T02:17:44;39.67;;;16.38;;
59016;SDS011;44800;55.600;38.134;2023-07-31T02:20:13;41.50;;;17.80;;
59016;SDS011;44800;55.600;38.134;2023-07-31T02:22:41;54.92;;;19.52;;
59016;SDS011;44800;55.600;38.134;2023-07-31T02:25:09;46.53;;;18.88;;
59016;SDS011;44800;55.600;38.134;2023-07-31T02:27:38;50.92;;;18.63;;
59016;SDS011;44800;55.600;38.134;2023-07-31T02:30:07;37.60;;;16.85;;
59016;SDS011;44800;55.600;38.134;2023-07-31T02:32:36;38.97;;;16.42;;
59016;SDS011;44800;55.600;38.134;2023-07-31T02:35:07;37.28;;;15.98;;
59016;SDS011;44800;55.600;38.134;2023-07-31T02:37:36;38.13;;;16.73;;
59016;SDS011;44800;55.600;38.134;2023-07-31T02:40:05;39.00;;;17.50;;
59016;SDS011;44800;55.600;38.134;2023-07-31T02:42:34;41.85;;;16.30;;
59016;SDS011;44800;55.600;38.134;2023-07-31T02:45:03;35.25;;;16.40;;
59016;SDS011;44800;55.600;38.134;2023-07-31T02:47:32;40.85;;;17.25;;
59016;SDS011;44800;55.600;38.134;2023-07-31T02:50:01;35.20;;;16.33;;
59016;SDS011;44800;55.600;38.134;2023-07-31T02:52:32;43.67;;;16.88;;
59016;SDS011;44800;55.600;38.134;2023-07-31T02:55:00;48.45;;;16.23;;
59016;SDS011;44800;55.600;38.134;2023-07-31T02:57:30;41.03;;;18.38;;
59016;SDS011;44800;55.600;38.134;2023-07-31T02:59:59;43.47;;;17.40;;
59016;SDS011;44800;55.600;38.134;2023-07-31T03:02:31;37.55;;;15.88;;
59016;SDS011;44800;55.600;38.134;2023-07-31T03:05:00;33.40;;;15.80;;
59016;SDS011;44800;55.600;38.134;2023-07-31T03:07:32;42.17;;;16.60;;
59016;SDS011;44800;55.600;38.134;2023-07-31T03:10:01;41.20;;;16.00;;
59016;SDS011;44800;55.600;38.134;2023-07-31T03:12:30;37.35;;;16.58;;
59016;SDS011;44800;55.600;38.134;2023-07-31T03:14:58;38.08;;;16.45;;
59016;SDS011;44800;55.600;38.134;2023-07-31T03:17:30;45.15;;;17.05;;
59016;SDS011;44800;55.600;38.134;2023-07-31T03:19:59;39.25;;;16.73;;
59016;SDS011;44800;55.600;38.134;2023-07-31T03:22:29;42.38;;;16.52;;
59016;SDS011;44800;55.600;38.134;2023-07-31T03:24:59;40.30;;;15.80;;
59016;SDS011;44800;55.600;38.134;2023-07-31T03:27:31;40.72;;;15.95;;
59016;SDS011;44800;55.600;38.134;2023-07-31T03:29:59;45.42;;;17.45;;
59016;SDS011;44800;55.600;38.134;2023-07-31T03:32:31;126.60;;;22.33;;
59016;SDS011;44800;55.600;38.134;2023-07-31T03:35:00;53.92;;;18.00;;
59016;SDS011;44800;55.600;38.134;2023-07-31T03:37:30;46.67;;;17.38;;
59016;SDS011;44800;55.600;38.134;2023-07-31T03:40:01;32.70;;;14.98;;
59016;SDS011;44800;55.600;38.134;2023-07-31T03:42:31;40.22;;;18.73;;
59016;SDS011;44800;55.600;38.134;2023-07-31T03:44:59;32.85;;;14.23;;
59016;SDS011;44800;55.600;38.134;2023-07-31T03:47:31;57.78;;;18.45;;
59016;SDS011;44800;55.600;38.134;2023-07-31T03:49:59;48.92;;;18.05;;
59016;SDS011;44800;55.600;38.134;2023-07-31T03:52:29;53.08;;;19.45;;
59016;SDS011;44800;55.600;38.134;2023-07-31T03:54:57;38.05;;;18.10;;
59016;SDS011;44800;55.600;38.134;2023-07-31T03:57:31;41.03;;;16.23;;
59016;SDS011;44800;55.600;38.134;2023-07-31T03:59:59;42.45;;;17.17;;
59016;SDS011;44800;55.600;38.134;2023-07-31T04:02:30;52.63;;;17.85;;
59016;SDS011;44800;55.600;38.134;2023-07-31T04:04:59;43.08;;;16.10;;
59016;SDS011;44800;55.600;38.134;2023-07-31T04:07:29;39.15;;;17.02;;
59016;SDS011;44800;55.600;38.134;2023-07-31T04:09:57;52.95;;;17.48;;
59016;SDS011;44800;55.600;38.134;2023-07-31T04:12:27;34.47;;;17.27;;
59016;SDS011;44800;55.600;38.134;2023-07-31T04:14:57;42.25;;;16.27;;
59016;SDS011;44800;55.600;38.134;2023-07-31T04:17:25;36.90;;;16.00;;
59016;SDS011;44800;55.600;38.134;2023-07-31T04:19:54;31.15;;;14.70;;
59016;SDS011;44800;55.600;38.134;2023-07-31T04:22:23;42.00;;;14.27;;
59016;SDS011;44800;55.600;38.134;2023-07-31T04:24:51;27.13;;;14.23;;
59016;SDS011;44800;55.600;38.134;2023-07-31T04:27:25;31.38;;;14.65;;
59016;SDS011;44800;55.600;38.134;2023-07-31T04:29:54;40.97;;;14.68;;
59016;SDS011;44800;55.600;38.134;2023-07-31T04:32:23;35.38;;;15.70;;
59016;SDS011;44800;55.600;38.134;2023-07-31T04:34:52;35.63;;;15.60;;
59016;SDS011;44800;55.600;38.134;2023-07-31T04:37:20;30.75;;;14.48;;
59016;SDS011;44800;55.600;38.134;2023-07-31T04:39:49;39.78;;;15.65;;
59016;SDS011;44800;55.600;38.134;2023-07-31T04:42:17;35.95;;;14.52;;
59016;SDS011;44800;55.600;38.134;2023-07-31T04:44:46;33.38;;;14.80;;
59016;SDS011;44800;55.600;38.134;2023-07-31T04:47:15;40.58;;;15.18;;
59016;SDS011;44800;55.600;38.134;2023-07-31T04:49:45;31.58;;;14.75;;
59016;SDS011;44800;55.600;38.134;2023-07-31T04:52:14;36.92;;;16.08;;
59016;SDS011;44800;55.600;38.134;2023-07-31T04:54:42;36.10;;;16.38;;
59016;SDS011;44800;55.600;38.134;2023-07-31T04:57:10;45.83;;;17.45;;
59016;SDS011;44800;55.600;38.134;2023-07-31T04:59:39;40.65;;;17.00;;
59016;SDS011;44800;55.600;38.134;2023-07-31T05:02:08;46.20;;;17.20;;
59016;SDS011;44800;55.600;38.134;2023-07-31T05:04:36;36.17;;;15.63;;
59016;SDS011;44800;55.600;38.134;2023-07-31T05:07:06;46.72;;;18.55;;
59016;SDS011;44800;55.600;38.134;2023-07-31T05:09:35;36.28;;;15.75;;
59016;SDS011;44800;55.600;38.134;2023-07-31T05:12:04;38.55;;;18.02;;
59016;SDS011;44800;55.600;38.134;2023-07-31T05:14:33;35.42;;;16.35;;
59016;SDS011;44800;55.600;38.134;2023-07-31T05:17:02;47.03;;;17.65;;
59016;SDS011;44800;55.600;38.134;2023-07-31T05:19:32;71.03;;;23.83;;
59016;SDS011;44800;55.600;38.134;2023-07-31T05:22:00;115.38;;;39.55;;
59016;SDS011;44800;55.600;38.134;2023-07-31T05:24:30;41.25;;;16.38;;
59016;SDS011;44800;55.600;38.134;2023-07-31T05:26:58;36.30;;;15.82;;
59016;SDS011;44800;55.600;38.134;2023-07-31T05:29:27;36.05;;;14.32;;
59016;SDS011;44800;55.600;38.134;2023-07-31T05:31:55;33.47;;;11.90;;
59016;SDS011;44800;55.600;38.134;2023-07-31T05:34:24;32.88;;;14.63;;
59016;SDS011;44800;55.600;38.134;2023-07-31T05:36:52;53.72;;;17.58;;
59016;SDS011;44800;55.600;38.134;2023-07-31T05:39:21;37.08;;;12.18;;
59016;SDS011;44800;55.600;38.134;2023-07-31T05:41:51;22.48;;;10.73;;
59016;SDS011;44800;55.600;38.134;2023-07-31T05:44:19;28.75;;;11.73;;
59016;SDS011;44800;55.600;38.134;2023-07-31T05:46:47;80.60;;;32.80;;
59016;SDS011;44800;55.600;38.134;2023-07-31T05:49:16;37.90;;;14.88;;
59016;SDS011;44800;55.600;38.134;2023-07-31T05:51:45;30.30;;;12.77;;
59016;SDS011;44800;55.600;38.134;2023-07-31T05:54:14;26.67;;;11.68;;
59016;SDS011;44800;55.600;38.134;2023-07-31T05:56:42;36.58;;;13.63;;
59016;SDS011;44800;55.600;38.134;2023-07-31T05:59:12;23.67;;;11.45;;
59016;SDS011;44800;55.600;38.134;2023-07-31T06:01:41;34.70;;;11.70;;
59016;SDS011;44800;55.600;38.134;2023-07-31T06:04:09;23.73;;;10.45;;
59016;SDS011;44800;55.600;38.134;2023-07-31T06:06:38;24.88;;;12.32;;
59016;SDS011;44800;55.600;38.134;2023-07-31T06:09:07;22.27;;;10.73;;
59016;SDS011;44800;55.600;38.134;2023-07-31T06:11:35;36.85;;;15.95;;
59016;SDS011;44800;55.600;38.134;2023-07-31T06:14:04;22.45;;;8.63;;
59016;SDS011;44800;55.600;38.134;2023-07-31T06:16:33;21.50;;;9.85;;
59016;SDS011;44800;55.600;38.134;2023-07-31T06:19:03;27.95;;;10.68;;
59016;SDS011;44800;55.600;38.134;2023-07-31T06:21:32;31.55;;;16.02;;
59016;SDS011;44800;55.600;38.134;2023-07-31T06:24:00;20.15;;;9.02;;
59016;SDS011;44800;55.600;38.134;2023-07-31T06:26:29;20.05;;;10.02;;
59016;SDS011;44800;55.600;38.134;2023-07-31T06:28:57;19.85;;;8.77;;
59016;SDS011;44800;55.600;38.134;2023-07-31T06:31:26;32.30;;;12.77;;
59016;SDS011;44800;55.600;38.134;2023-07-31T06:33:56;26.17;;;10.48;;
59016;SDS011;44800;55.600;38.134;2023-07-31T06:36:24;28.02;;;8.32;;
59016;SDS011;44800;55.600;38.134;2023-07-31T06:38:53;23.77;;;9.13;;
59016;SDS011;44800;55.600;38.134;2023-07-31T06:41:21;27.83;;;14.13;;
59016;SDS011;44800;55.600;38.134;2023-07-31T06:43:50;21.00;;;9.65;;
59016;SDS011;44800;55.600;38.134;2023-07-31T06:46:18;56.15;;;18.23;;
59016;SDS011;44800;55.600;38.134;2023-07-31T06:48:47;15.32;;;7.07;;
59016;SDS011;44800;55.600;38.134;2023-07-31T06:51:17;50.00;;;20.85;;
59016;SDS011;44800;55.600;38.134;2023-07-31T06:53:46;16.60;;;6.45;;
59016;SDS011;44800;55.600;38.134;2023-07-31T06:56:15;10.60;;;6.38;;
59016;SDS011;44800;55.600;38.134;2023-07-31T06:58:44;14.05;;;6.43;;
59016;SDS011;44800;55.600;38.134;2023-07-31T07:01:12;17.52;;;7.40;;
59016;SDS011;44800;55.600;38.134;2023-07-31T07:03:41;14.43;;;5.90;;
59016;SDS011;44800;55.600;38.134;2023-07-31T07:06:09;13.18;;;5.93;;
59016;SDS011;44800;55.600;38.134;2023-07-31T07:08:40;13.98;;;6.28;;
59016;SDS011;44800;55.600;38.134;2023-07-31T07:11:08;9.40;;;5.38;;
59016;SDS011;44800;55.600;38.134;2023-07-31T07:13:37;12.07;;;5.20;;
59016;SDS011;44800;55.600;38.134;2023-07-31T07:16:05;14.63;;;5.38;;
59016;SDS011;44800;55.600;38.134;2023-07-31T07:18:33;8.95;;;5.70;;
59016;SDS011;44800;55.600;38.134;2023-07-31T07:21:07;14.07;;;5.75;;
59016;SDS011;44800;55.600;38.134;2023-07-31T07:23:35;15.05;;;4.90;;
59016;SDS011;44800;55.600;38.134;2023-07-31T07:26:06;19.13;;;8.27;;
59016;SDS011;44800;55.600;38.134;2023-07-31T07:28:35;17.95;;;9.50;;
59016;SDS011;44800;55.600;38.134;2023-07-31T07:31:04;23.13;;;11.68;;
59016;SDS011;44800;55.600;38.134;2023-07-31T07:33:32;13.30;;;5.88;;
59016;SDS011;44800;55.600;38.134;2023-07-31T07:36:01;15.40;;;5.97;;
59016;SDS011;44800;55.600;38.134;2023-07-31T07:38:30;13.60;;;5.85;;
59016;SDS011;44800;55.600;38.134;2023-07-31T07:40:58;17.33;;;7.35;;
59016;SDS011;44800;55.600;38.134;2023-07-31T07:43:28;10.55;;;5.53;;
59016;SDS011;44800;55.600;38.134;2023-07-31T07:45:57;10.50;;;5.45;;
59016;SDS011;44800;55.600;38.134;2023-07-31T07:48:25;8.68;;;4.38;;
59016;SDS011;44800;55.600;38.134;2023-07-31T07:50:54;12.57;;;5.35;;
59016;SDS011;44800;55.600;38.134;2023-07-31T07:53:22;17.83;;;5.65;;
59016;SDS011;44800;55.600;38.134;2023-07-31T07:55:51;130.07;;;50.17;;
59016;SDS011;44800;55.600;38.134;2023-07-31T07:58:20;12.30;;;7.22;;
59016;SDS011;44800;55.600;38.134;2023-07-31T08:00:50;17.90;;;9.10;;
59016;SDS011;44800;55.600;38.134;2023-07-31T08:03:19;12.57;;;5.30;;
59016;SDS011;44800;55.600;38.134;2023-07-31T08:05:47;13.77;;;4.75;;
59016;SDS011;44800;55.600;38.134;2023-07-31T08:08:16;8.55;;;3.85;;
59016;SDS011;44800;55.600;38.134;2023-07-31T08:10:45;23.85;;;6.28;;
59016;SDS011;44800;55.600;38.134;2023-07-31T08:13:14;9.13;;;4.00;;
59016;SDS011;44800;55.600;38.134;2023-07-31T08:15:42;11.55;;;5.68;;
59016;SDS011;44800;55.600;38.134;2023-07-31T08:18:12;10.35;;;4.78;;
59016;SDS011;44800;55.600;38.134;2023-07-31T08:20:41;6.90;;;4.95;;
59016;SDS011;44800;55.600;38.134;2023-07-31T08:23:09;24.77;;;10.65;;
59016;SDS011;44800;55.600;38.134;2023-07-31T08:25:38;7.15;;;4.07;;
59016;SDS011;44800;55.600;38.134;2023-07-31T08:28:06;14.38;;;4.95;;
59016;SDS011;44800;55.600;38.134;2023-07-31T08:30:35;10.52;;;5.07;;
59016;SDS011;44800;55.600;38.134;2023-07-31T08:33:04;11.68;;;5.88;;
59016;SDS011;44800;55.600;38.134;2023-07-31T08:35:34;15.13;;;4.95;;
59016;SDS011;44800;55.600;38.134;2023-07-31T08:38:03;6.60;;;5.15;;
59016;SDS011;44800;55.600;38.134;2023-07-31T08:40:32;13.38;;;6.30;;
59016;SDS011;44800;55.600;38.134;2023-07-31T08:43:04;8.98;;;4.38;;
59016;SDS011;44800;55.600;38.134;2023-07-31T08:45:33;8.40;;;4.28;;
59016;SDS011;44800;55.600;38.134;2023-07-31T08:48:02;7.75;;;4.82;;
59016;SDS011;44800;55.600;38.134;2023-07-31T08:50:32;8.75;;;4.88;;
59016;SDS011;44800;55.600;38.134;2023-07-31T08:53:02;7.97;;;4.25;;
59016;SDS011;44800;55.600;38.134;2023-07-31T08:55:30;11.43;;;4.85;;
59016;SDS011;44800;55.600;38.134;2023-07-31T08:58:00;8.75;;;5.15;;
59016;SDS011;44800;55.600;38.134;2023-07-31T09:00:30;11.80;;;4.55;;
59016;SDS011;44800;55.600;38.134;2023-07-31T09:03:02;12.32;;;5.80;;
59016;SDS011;44800;55.600;38.134;2023-07-31T09:05:31;18.73;;;8.82;;
59016;SDS011;44800;55.600;38.134;2023-07-31T09:08:00;10.25;;;5.78;;
59016;SDS011;44800;55.600;38.134;2023-07-31T09:10:31;19.60;;;5.43;;
59016;SDS011;44800;55.600;38.134;2023-07-31T09:12:59;10.02;;;4.97;;
59016;SDS011;44800;55.600;38.134;2023-07-31T09:15:27;8.57;;;4.10;;
59016;SDS011;44800;55.600;38.134;2023-07-31T09:18:04;12.85;;;6.75;;
59016;SDS011;44800;55.600;38.134;2023-07-31T09:20:33;9.18;;;4.97;;
59016;SDS011;44800;55.600;38.134;2023-07-31T09:23:06;23.45;;;5.78;;
59016;SDS011;44800;55.600;38.134;2023-07-31T09:25:36;13.98;;;6.25;;
59016;SDS011;44800;55.600;38.134;2023-07-31T09:28:05;9.15;;;4.85;;
59016;SDS011;44800;55.600;38.134;2023-07-31T09:30:44;6.25;;;4.32;;
59016;SDS011;44800;55.600;38.134;2023-07-31T09:33:15;11.68;;;6.25;;
59016;SDS011;44800;55.600;38.134;2023-07-31T09:35:46;9.27;;;3.83;;
59016;SDS011;44800;55.600;38.134;2023-07-31T09:38:16;11.02;;;4.50;;
59016;SDS011;44800;55.600;38.134;2023-07-31T09:40:45;8.70;;;5.07;;
59016;SDS011;44800;55.600;38.134;2023-07-31T09:43:17;9.27;;;4.82;;
59016;SDS011;44800;55.600;38.134;2023-07-31T09:45:45;11.63;;;7.13;;
59016;SDS011;44800;55.600;38.134;2023-07-31T09:48:14;7.43;;;4.88;;
59016;SDS011;44800;55.600;38.134;2023-07-31T09:50:44;7.05;;;4.72;;
59016;SDS011;44800;55.600;38.134;2023-07-31T09:53:13;10.00;;;4.70;;
59016;SDS011;44800;55.600;38.134;2023-07-31T09:55:44;10.73;;;5.68;;
59016;SDS011;44800;55.600;38.134;2023-07-31T09:58:13;7.57;;;4.60;;
59016;SDS011;44800;55.600;38.134;2023-07-31T10:00:41;20.80;;;9.27;;
59016;SDS011;44800;55.600;38.134;2023-07-31T10:03:10;7.63;;;4.13;;
59016;SDS011;44800;55.600;38.134;2023-07-31T10:05:41;7.95;;;4.53;;
59016;SDS011;44800;55.600;38.134;2023-07-31T10:08:12;9.27;;;4.55;;
59016;SDS011;44800;55.600;38.134;2023-07-31T10:10:42;6.80;;;4.18;;
59016;SDS011;44800;55.600;38.134;2023-07-31T10:13:13;8.85;;;4.55;;
59016;SDS011;44800;55.600;38.134;2023-07-31T10:15:42;7.82;;;4.95;;
59016;SDS011;44800;55.600;38.134;2023-07-31T10:18:11;7.68;;;4.43;;
59016;SDS011;44800;55.600;38.134;2023-07-31T10:20:39;8.80;;;5.50;;
59016;SDS011;44800;55.600;38.134;2023-07-31T10:23:08;15.85;;;7.15;;
59016;SDS011;44800;55.600;38.134;2023-07-31T10:25:37;15.05;;;6.28;;
59016;SDS011;44800;55.600;38.134;2023-07-31T10:28:08;15.82;;;5.25;;
59016;SDS011;44800;55.600;38.134;2023-07-31T10:30:37;12.38;;;5.82;;
59016;SDS011;44800;55.600;38.134;2023-07-31T10:33:06;12.85;;;5.82;;
59016;SDS011;44800;55.600;38.134;2023-07-31T10:35:35;11.43;;;5.10;;
59016;SDS011;44800;55.600;38.134;2023-07-31T10:38:11;9.77;;;5.00;;
59016;SDS011;44800;55.600;38.134;2023-07-31T10:40:41;8.98;;;5.65;;
59016;SDS011;44800;55.600;38.134;2023-07-31T10:43:11;8.95;;;4.90;;
59016;SDS011;44800;55.600;38.134;2023-07-31T10:45:52;8.80;;;4.47;;
59016;SDS011;44800;55.600;38.134;2023-07-31T10:48:21;10.80;;;5.60;;
59016;SDS011;44800;55.600;38.134;2023-07-31T10:50:50;9.43;;;5.30;;
59016;SDS011;44800;55.600;38.134;2023-07-31T10:53:22;5.93;;;4.63;;
59016;SDS011;44800;55.600;38.134;2023-07-31T10:58:21;10.77;;;4.78;;
59016;SDS011;44800;55.600;38.134;2023-07-31T11:00:51;7.00;;;4.28;;
59016;SDS011;44800;55.600;38.134;2023-07-31T11:05:53;8.25;;;4.72;;
59016;SDS011;44800;55.600;38.134;2023-07-31T11:08:30;10.48;;;5.30;;
59016;SDS011;44800;55.600;38.134;2023-07-31T11:11:07;10.27;;;5.30;;
59016;SDS011;44800;55.600;38.134;2023-07-31T11:13:41;12.98;;;7.32;;
59016;SDS011;44800;55.600;38.134;2023-07-31T11:16:11;8.48;;;4.97;;
59016;SDS011;44800;55.600;38.134;2023-07-31T11:18:41;12.60;;;5.60;;
59016;SDS011;44800;55.600;38.134;2023-07-31T11:21:12;13.18;;;7.22;;
59016;SDS011;44800;55.600;38.134;2023-07-31T11:23:41;14.23;;;8.45;;
59016;SDS011;44800;55.600;38.134;2023-07-31T11:26:09;11.75;;;7.00;;
59016;SDS011;44800;55.600;38.134;2023-07-31T11:28:39;17.23;;;8.32;;
59016;SDS011;44800;55.600;38.134;2023-07-31T11:31:09;7.28;;;5.45;;
59016;SDS011;44800;55.600;38.134;2023-07-31T11:33:38;7.18;;;5.03;;
59016;SDS011;44800;55.600;38.134;2023-07-31T11:36:14;22.23;;;11.15;;
59016;SDS011;44800;55.600;38.134;2023-07-31T11:38:44;8.82;;;5.40;;
59016;SDS011;44800;55.600;38.134;2023-07-31T11:41:13;8.38;;;5.57;;
59016;SDS011;44800;55.600;38.134;2023-07-31T11:43:44;9.20;;;5.18;;
59016;SDS011;44800;55.600;38.134;2023-07-31T11:46:13;16.75;;;7.28;;
59016;SDS011;44800;55.600;38.134;2023-07-31T11:48:42;7.80;;;5.25;;
59016;SDS011;44800;55.600;38.134;2023-07-31T11:51:12;30.85;;;13.95;;
59016;SDS011;44800;55.600;38.134;2023-07-31T11:53:42;12.07;;;5.78;;
59016;SDS011;44800;55.600;38.134;2023-07-31T11:56:12;13.07;;;7.75;;
59016;SDS011;44800;55.600;38.134;2023-07-31T11:58:41;9.55;;;5.88;;
59016;SDS011;44800;55.600;38.134;2023-07-31T12:01:13;10.95;;;6.05;;
59016;SDS011;44800;55.600;38.134;2023-07-31T12:03:44;21.20;;;6.63;;
59016;SDS011;44800;55.600;38.134;2023-07-31T12:06:13;37.17;;;16.27;;
59016;SDS011;44800;55.600;38.134;2023-07-31T12:08:44;12.20;;;5.78;;
59016;SDS011;44800;55.600;38.134;2023-07-31T12:11:13;8.20;;;5.38;;
59016;SDS011;44800;55.600;38.134;2023-07-31T12:13:41;8.40;;;5.93;;
59016;SDS011;44800;55.600;38.134;2023-07-31T12:16:11;7.40;;;5.70;;
59016;SDS011;44800;55.600;38.134;2023-07-31T12:18:40;6.93;;;5.55;;
59016;SDS011;44800;55.600;38.134;2023-07-31T12:21:09;11.43;;;5.70;;
59016;SDS011;44800;55.600;38.134;2023-07-31T12:23:38;10.05;;;5.32;;
59016;SDS011;44800;55.600;38.134;2023-07-31T12:26:09;9.27;;;5.65;;
59016;SDS011;44800;55.600;38.134;2023-07-31T12:28:41;9.13;;;5.75;;
59016;SDS011;44800;55.600;38.134;2023-07-31T12:31:12;6.78;;;4.95;;
59016;SDS011;44800;55.600;38.134;2023-07-31T12:33:41;13.50;;;7.78;;
59016;SDS011;44800;55.600;38.134;2023-07-31T12:36:11;9.63;;;6.22;;
59016;SDS011;44800;55.600;38.134;2023-07-31T12:38:40;13.73;;;5.88;;
59016;SDS011;44800;55.600;38.134;2023-07-31T12:41:09;10.73;;;6.38;;
59016;SDS011;44800;55.600;38.134;2023-07-31T12:43:39;15.52;;;6.40;;
59016;SDS011;44800;55.600;38.134;2023-07-31T12:46:08;10.10;;;5.75;;
59016;SDS011;44800;55.600;38.134;2023-07-31T12:48:38;20.50;;;9.23;;
59016;SDS011;44800;55.600;38.134;2023-07-31T12:51:07;26.02;;;10.63;;
59016;SDS011;44800;55.600;38.134;2023-07-31T12:53:35;11.27;;;6.45;;
59016;SDS011;44800;55.600;38.134;2023-07-31T12:56:04;9.02;;;5.55;;
59016;SDS011;44800;55.600;38.134;2023-07-31T12:58:32;13.30;;;4.75;;
59016;SDS011;44800;55.600;38.134;2023-07-31T13:01:01;11.90;;;6.63;;
59016;SDS011;44800;55.600;38.134;2023-07-31T13:03:29;8.88;;;6.38;;
59016;SDS011;44800;55.600;38.134;2023-07-31T13:05:59;12.90;;;5.25;;
59016;SDS011;44800;55.600;38.134;2023-07-31T13:08:28;9.25;;;5.28;;
59016;SDS011;44800;55.600;38.134;2023-07-31T13:10:56;12.80;;;5.80;;
59016;SDS011;44800;55.600;38.134;2023-07-31T13:13:25;23.00;;;6.07;;
59016;SDS011;44800;55.600;38.134;2023-07-31T13:15:56;11.10;;;6.38;;
59016;SDS011;44800;55.600;38.134;2023-07-31T13:18:24;11.73;;;5.72;;
59016;SDS011;44800;55.600;38.134;2023-07-31T13:20:53;7.32;;;4.88;;
59016;SDS011;44800;55.600;38.134;2023-07-31T13:23:22;15.02;;;6.55;;
59016;SDS011;44800;55.600;38.134;2023-07-31T13:25:51;11.30;;;5.68;;
59016;SDS011;44800;55.600;38.134;2023-07-31T13:28:19;10.07;;;6.30;;
59016;SDS011;44800;55.600;38.134;2023-07-31T13:30:48;20.48;;;10.07;;
59016;SDS011;44800;55.600;38.134;2023-07-31T13:33:16;20.90;;;10.90;;
59016;SDS011;44800;55.600;38.134;2023-07-31T13:36:02;10.68;;;6.80;;
59016;SDS011;44800;55.600;38.134;2023-07-31T13:38:32;19.80;;;7.35;;
59016;SDS011;44800;55.600;38.134;2023-07-31T13:41:00;13.30;;;5.78;;
59016;SDS011;44800;55.600;38.134;2023-07-31T13:43:29;19.65;;;10.43;;
59016;SDS011;44800;55.600;38.134;2023-07-31T13:45:58;11.32;;;5.65;;
59016;SDS011;44800;55.600;38.134;2023-07-31T13:51:02;12.38;;;5.63;;
59016;SDS011;44800;55.600;38.134;2023-07-31T13:53:32;23.23;;;11.05;;
59016;SDS011;44800;55.600;38.134;2023-07-31T13:56:01;14.30;;;6.90;;
59016;SDS011;44800;55.600;38.134;2023-07-31T13:58:29;14.10;;;7.32;;
59016;SDS011;44800;55.600;38.134;2023-07-31T14:00:58;31.13;;;13.57;;
59016;SDS011;44800;55.600;38.134;2023-07-31T14:03:26;19.38;;;6.68;;
59016;SDS011;44800;55.600;38.134;2023-07-31T14:05:55;17.63;;;9.60;;
59016;SDS011;44800;55.600;38.134;2023-07-31T14:08:23;22.33;;;10.25;;
59016;SDS011;44800;55.600;38.134;2023-07-31T14:10:53;12.48;;;6.47;;
59016;SDS011;44800;55.600;38.134;2023-07-31T14:13:22;12.57;;;6.90;;
59016;SDS011;44800;55.600;38.134;2023-07-31T14:15:51;10.35;;;5.38;;
59016;SDS011;44800;55.600;38.134;2023-07-31T14:18:20;12.43;;;6.00;;
59016;SDS011;44800;55.600;38.134;2023-07-31T14:20:49;8.35;;;5.85;;
59016;SDS011;44800;55.600;38.134;2023-07-31T14:23:18;13.73;;;5.90;;
59016;SDS011;44800;55.600;38.134;2023-07-31T14:25:46;8.55;;;5.90;;
59016;SDS011;44800;55.600;38.134;2023-07-31T14:28:17;10.77;;;6.50;;
59016;SDS011;44800;55.600;38.134;2023-07-31T14:30:45;11.90;;;6.35;;
59016;SDS011;44800;55.600;38.134;2023-07-31T14:33:14;8.02;;;5.57;;
59016;SDS011;44800;55.600;38.134;2023-07-31T14:35:42;9.75;;;5.80;;
59016;SDS011;44800;55.600;38.134;2023-07-31T14:38:10;11.52;;;4.93;;